<?xml version="1.0" encoding="UTF-8" standalone="no" ?>
<gpx xmlns="http://www.topografix.com/GPX/1/1" xmlns:xsi="http://www.w3.org/2001/XMLSchema-instance" xsi:schemaLocation="http://www.topografix.com/GPX/1/1 http://www.topografix.com/GPX/1/1/gpx.xsd" version="1.1" creator="VisuGPX - https://www.visugpx.com">
  <metadata>
    <name>R 009 Mort à l'Ane</name>
  </metadata>
  <trk>
    <name><![CDATA[R 09_Mort à l'Ane]]></name>
    <trkseg>
      <trkpt lat="46.44405" lon="-1.67122">
        <ele>5</ele>
        <time>2012-06-01T12:24:25Z</time>
      </trkpt>
      <trkpt lat="46.44406" lon="-1.6712">
        <ele>8.6</ele>
        <time>2012-06-01T12:24:37Z</time>
      </trkpt>
      <trkpt lat="46.4441" lon="-1.67119">
        <ele>13.5</ele>
        <time>2012-06-01T12:24:50Z</time>
      </trkpt>
      <trkpt lat="46.44412" lon="-1.67121">
        <ele>15</ele>
        <time>2012-06-01T12:25:03Z</time>
      </trkpt>
      <trkpt lat="46.44415" lon="-1.67143">
        <ele>15</ele>
        <time>2012-06-01T12:25:39Z</time>
      </trkpt>
      <trkpt lat="46.4442" lon="-1.67169">
        <ele>16</ele>
        <time>2012-06-01T12:26:03Z</time>
      </trkpt>
      <trkpt lat="46.4442" lon="-1.67189">
        <ele>17.8</ele>
        <time>2012-06-01T12:26:39Z</time>
      </trkpt>
      <trkpt lat="46.44427" lon="-1.67193">
        <ele>18.8</ele>
        <time>2012-06-01T12:27:01Z</time>
      </trkpt>
      <trkpt lat="46.44448" lon="-1.67194">
        <ele>20</ele>
        <time>2012-06-01T12:27:25Z</time>
      </trkpt>
      <trkpt lat="46.44467" lon="-1.67204">
        <ele>20.6</ele>
        <time>2012-06-01T12:27:37Z</time>
      </trkpt>
      <trkpt lat="46.44482" lon="-1.67215">
        <ele>21.5</ele>
        <time>2012-06-01T12:27:57Z</time>
      </trkpt>
      <trkpt lat="46.44493" lon="-1.67226">
        <ele>21.9</ele>
        <time>2012-06-01T12:28:05Z</time>
      </trkpt>
      <trkpt lat="46.44503" lon="-1.67243">
        <ele>22.7</ele>
        <time>2012-06-01T12:28:21Z</time>
      </trkpt>
      <trkpt lat="46.44517" lon="-1.67253">
        <ele>23.6</ele>
        <time>2012-06-01T12:28:40Z</time>
      </trkpt>
      <trkpt lat="46.44527" lon="-1.67266">
        <ele>24.3</ele>
        <time>2012-06-01T12:28:54Z</time>
      </trkpt>
      <trkpt lat="46.44539" lon="-1.67277">
        <ele>24.8</ele>
        <time>2012-06-01T12:29:04Z</time>
      </trkpt>
      <trkpt lat="46.4455" lon="-1.6729">
        <ele>25.2</ele>
        <time>2012-06-01T12:29:13Z</time>
      </trkpt>
      <trkpt lat="46.44555" lon="-1.67302">
        <ele>25.5</ele>
        <time>2012-06-01T12:29:20Z</time>
      </trkpt>
      <trkpt lat="46.44556" lon="-1.67322">
        <ele>26</ele>
        <time>2012-06-01T12:29:33Z</time>
      </trkpt>
      <trkpt lat="46.44559" lon="-1.67341">
        <ele>26</ele>
        <time>2012-06-01T12:29:44Z</time>
      </trkpt>
      <trkpt lat="46.44565" lon="-1.67365">
        <ele>26</ele>
        <time>2012-06-01T12:29:57Z</time>
      </trkpt>
      <trkpt lat="46.4457" lon="-1.6738">
        <ele>26</ele>
        <time>2012-06-01T12:30:09Z</time>
      </trkpt>
      <trkpt lat="46.44581" lon="-1.67394">
        <ele>26</ele>
        <time>2012-06-01T12:30:25Z</time>
      </trkpt>
      <trkpt lat="46.4459" lon="-1.67409">
        <ele>26</ele>
        <time>2012-06-01T12:30:37Z</time>
      </trkpt>
      <trkpt lat="46.446" lon="-1.67423">
        <ele>26</ele>
        <time>2012-06-01T12:30:48Z</time>
      </trkpt>
      <trkpt lat="46.44614" lon="-1.67448">
        <ele>26</ele>
        <time>2012-06-01T12:31:01Z</time>
      </trkpt>
      <trkpt lat="46.44628" lon="-1.67443">
        <ele>26</ele>
        <time>2012-06-01T12:31:32Z</time>
      </trkpt>
      <trkpt lat="46.44642" lon="-1.67437">
        <ele>26</ele>
        <time>2012-06-01T12:31:43Z</time>
      </trkpt>
      <trkpt lat="46.44663" lon="-1.6743">
        <ele>26</ele>
        <time>2012-06-01T12:31:57Z</time>
      </trkpt>
      <trkpt lat="46.44672" lon="-1.67434">
        <ele>26</ele>
        <time>2012-06-01T12:32:08Z</time>
      </trkpt>
      <trkpt lat="46.44679" lon="-1.67449">
        <ele>26</ele>
        <time>2012-06-01T12:32:25Z</time>
      </trkpt>
      <trkpt lat="46.44682" lon="-1.6747">
        <ele>26</ele>
        <time>2012-06-01T12:32:33Z</time>
      </trkpt>
      <trkpt lat="46.44685" lon="-1.67491">
        <ele>26</ele>
        <time>2012-06-01T12:32:44Z</time>
      </trkpt>
      <trkpt lat="46.44691" lon="-1.67507">
        <ele>26</ele>
        <time>2012-06-01T12:32:57Z</time>
      </trkpt>
      <trkpt lat="46.44706" lon="-1.67507">
        <ele>26</ele>
        <time>2012-06-01T12:33:10Z</time>
      </trkpt>
      <trkpt lat="46.44719" lon="-1.67512">
        <ele>26</ele>
        <time>2012-06-01T12:33:24Z</time>
      </trkpt>
      <trkpt lat="46.44728" lon="-1.67526">
        <ele>26</ele>
        <time>2012-06-01T12:33:37Z</time>
      </trkpt>
      <trkpt lat="46.44742" lon="-1.67538">
        <ele>26</ele>
        <time>2012-06-01T12:33:49Z</time>
      </trkpt>
      <trkpt lat="46.44756" lon="-1.67543">
        <ele>26</ele>
        <time>2012-06-01T12:33:58Z</time>
      </trkpt>
      <trkpt lat="46.44771" lon="-1.67547">
        <ele>26</ele>
        <time>2012-06-01T12:34:07Z</time>
      </trkpt>
      <trkpt lat="46.44786" lon="-1.67552">
        <ele>26</ele>
        <time>2012-06-01T12:34:17Z</time>
      </trkpt>
      <trkpt lat="46.44799" lon="-1.67557">
        <ele>26</ele>
        <time>2012-06-01T12:34:30Z</time>
      </trkpt>
      <trkpt lat="46.44819" lon="-1.67562">
        <ele>26</ele>
        <time>2012-06-01T12:34:57Z</time>
      </trkpt>
      <trkpt lat="46.44832" lon="-1.67568">
        <ele>26</ele>
        <time>2012-06-01T12:35:12Z</time>
      </trkpt>
      <trkpt lat="46.44846" lon="-1.67573">
        <ele>26</ele>
        <time>2012-06-01T12:35:24Z</time>
      </trkpt>
      <trkpt lat="46.44863" lon="-1.67577">
        <ele>26</ele>
        <time>2012-06-01T12:35:39Z</time>
      </trkpt>
      <trkpt lat="46.44876" lon="-1.67581">
        <ele>26</ele>
        <time>2012-06-01T12:35:50Z</time>
      </trkpt>
      <trkpt lat="46.44897" lon="-1.67587">
        <ele>26</ele>
        <time>2012-06-01T12:36:08Z</time>
      </trkpt>
      <trkpt lat="46.44918" lon="-1.67595">
        <ele>26</ele>
        <time>2012-06-01T12:36:26Z</time>
      </trkpt>
      <trkpt lat="46.44932" lon="-1.67603">
        <ele>26</ele>
        <time>2012-06-01T12:36:34Z</time>
      </trkpt>
      <trkpt lat="46.44944" lon="-1.67614">
        <ele>26</ele>
        <time>2012-06-01T12:36:41Z</time>
      </trkpt>
      <trkpt lat="46.44956" lon="-1.67625">
        <ele>26</ele>
        <time>2012-06-01T12:36:49Z</time>
      </trkpt>
      <trkpt lat="46.44973" lon="-1.67645">
        <ele>26</ele>
        <time>2012-06-01T12:37:04Z</time>
      </trkpt>
      <trkpt lat="46.44988" lon="-1.6765">
        <ele>26</ele>
        <time>2012-06-01T12:37:16Z</time>
      </trkpt>
      <trkpt lat="46.45002" lon="-1.67651">
        <ele>26</ele>
        <time>2012-06-01T12:37:28Z</time>
      </trkpt>
      <trkpt lat="46.45018" lon="-1.67654">
        <ele>26</ele>
        <time>2012-06-01T12:37:39Z</time>
      </trkpt>
      <trkpt lat="46.45031" lon="-1.67652">
        <ele>26</ele>
        <time>2012-06-01T12:37:50Z</time>
      </trkpt>
      <trkpt lat="46.45045" lon="-1.67648">
        <ele>26</ele>
        <time>2012-06-01T12:38:03Z</time>
      </trkpt>
      <trkpt lat="46.45061" lon="-1.67644">
        <ele>26</ele>
        <time>2012-06-01T12:38:18Z</time>
      </trkpt>
      <trkpt lat="46.45077" lon="-1.67644">
        <ele>26</ele>
        <time>2012-06-01T12:38:36Z</time>
      </trkpt>
      <trkpt lat="46.45095" lon="-1.67645">
        <ele>26</ele>
        <time>2012-06-01T12:38:48Z</time>
      </trkpt>
      <trkpt lat="46.45108" lon="-1.67646">
        <ele>26</ele>
        <time>2012-06-01T12:39:01Z</time>
      </trkpt>
      <trkpt lat="46.45129" lon="-1.67646">
        <ele>26</ele>
        <time>2012-06-01T12:39:16Z</time>
      </trkpt>
      <trkpt lat="46.45142" lon="-1.67645">
        <ele>26</ele>
        <time>2012-06-01T12:39:32Z</time>
      </trkpt>
      <trkpt lat="46.45162" lon="-1.67647">
        <ele>26</ele>
        <time>2012-06-01T12:39:54Z</time>
      </trkpt>
      <trkpt lat="46.4519" lon="-1.67646">
        <ele>26</ele>
        <time>2012-06-01T12:40:16Z</time>
      </trkpt>
      <trkpt lat="46.45203" lon="-1.67645">
        <ele>26</ele>
        <time>2012-06-01T12:40:28Z</time>
      </trkpt>
      <trkpt lat="46.4522" lon="-1.67643">
        <ele>26</ele>
        <time>2012-06-01T12:40:37Z</time>
      </trkpt>
      <trkpt lat="46.45238" lon="-1.67639">
        <ele>26</ele>
        <time>2012-06-01T12:40:49Z</time>
      </trkpt>
      <trkpt lat="46.45251" lon="-1.67634">
        <ele>26</ele>
        <time>2012-06-01T12:40:59Z</time>
      </trkpt>
      <trkpt lat="46.45265" lon="-1.67631">
        <ele>26</ele>
        <time>2012-06-01T12:41:12Z</time>
      </trkpt>
      <trkpt lat="46.45279" lon="-1.67638">
        <ele>26</ele>
        <time>2012-06-01T12:41:22Z</time>
      </trkpt>
      <trkpt lat="46.45291" lon="-1.67656">
        <ele>26</ele>
        <time>2012-06-01T12:41:33Z</time>
      </trkpt>
      <trkpt lat="46.45296" lon="-1.67676">
        <ele>26</ele>
        <time>2012-06-01T12:41:45Z</time>
      </trkpt>
      <trkpt lat="46.45294" lon="-1.67699">
        <ele>26</ele>
        <time>2012-06-01T12:41:56Z</time>
      </trkpt>
      <trkpt lat="46.45292" lon="-1.67722">
        <ele>26</ele>
        <time>2012-06-01T12:42:07Z</time>
      </trkpt>
      <trkpt lat="46.45287" lon="-1.67755">
        <ele>26</ele>
        <time>2012-06-01T12:42:23Z</time>
      </trkpt>
      <trkpt lat="46.45284" lon="-1.67777">
        <ele>26</ele>
        <time>2012-06-01T12:42:33Z</time>
      </trkpt>
      <trkpt lat="46.4528" lon="-1.67806">
        <ele>26</ele>
        <time>2012-06-01T12:42:53Z</time>
      </trkpt>
      <trkpt lat="46.45278" lon="-1.67826">
        <ele>26</ele>
        <time>2012-06-01T12:43:04Z</time>
      </trkpt>
      <trkpt lat="46.45276" lon="-1.67846">
        <ele>26</ele>
        <time>2012-06-01T12:43:22Z</time>
      </trkpt>
      <trkpt lat="46.4528" lon="-1.67837">
        <ele>27</ele>
        <time>2012-06-01T12:44:14Z</time>
      </trkpt>
      <trkpt lat="46.45275" lon="-1.67838">
        <ele>31.4</ele>
        <time>2012-06-01T12:47:16Z</time>
      </trkpt>
      <trkpt lat="46.45273" lon="-1.67862">
        <ele>32.2</ele>
        <time>2012-06-01T12:47:51Z</time>
      </trkpt>
      <trkpt lat="46.45273" lon="-1.67885">
        <ele>32.6</ele>
        <time>2012-06-01T12:48:04Z</time>
      </trkpt>
      <trkpt lat="46.45271" lon="-1.67906">
        <ele>32.7</ele>
        <time>2012-06-01T12:48:11Z</time>
      </trkpt>
      <trkpt lat="46.45271" lon="-1.6793">
        <ele>32.9</ele>
        <time>2012-06-01T12:48:19Z</time>
      </trkpt>
      <trkpt lat="46.4527" lon="-1.67951">
        <ele>33.2</ele>
        <time>2012-06-01T12:48:31Z</time>
      </trkpt>
      <trkpt lat="46.45269" lon="-1.67971">
        <ele>33.5</ele>
        <time>2012-06-01T12:48:42Z</time>
      </trkpt>
      <trkpt lat="46.45266" lon="-1.67991">
        <ele>33.7</ele>
        <time>2012-06-01T12:48:53Z</time>
      </trkpt>
      <trkpt lat="46.45265" lon="-1.68013">
        <ele>34</ele>
        <time>2012-06-01T12:49:04Z</time>
      </trkpt>
      <trkpt lat="46.45265" lon="-1.68035">
        <ele>34.3</ele>
        <time>2012-06-01T12:49:15Z</time>
      </trkpt>
      <trkpt lat="46.45264" lon="-1.68058">
        <ele>34.6</ele>
        <time>2012-06-01T12:49:28Z</time>
      </trkpt>
      <trkpt lat="46.45263" lon="-1.68078">
        <ele>34.9</ele>
        <time>2012-06-01T12:49:39Z</time>
      </trkpt>
      <trkpt lat="46.4526" lon="-1.68098">
        <ele>35.1</ele>
        <time>2012-06-01T12:49:50Z</time>
      </trkpt>
      <trkpt lat="46.45257" lon="-1.68118">
        <ele>35.4</ele>
        <time>2012-06-01T12:50:01Z</time>
      </trkpt>
      <trkpt lat="46.45255" lon="-1.68138">
        <ele>35.6</ele>
        <time>2012-06-01T12:50:11Z</time>
      </trkpt>
      <trkpt lat="46.45251" lon="-1.68161">
        <ele>35.9</ele>
        <time>2012-06-01T12:50:23Z</time>
      </trkpt>
      <trkpt lat="46.45249" lon="-1.68181">
        <ele>36.2</ele>
        <time>2012-06-01T12:50:34Z</time>
      </trkpt>
      <trkpt lat="46.45245" lon="-1.68201">
        <ele>36.5</ele>
        <time>2012-06-01T12:50:45Z</time>
      </trkpt>
      <trkpt lat="46.45243" lon="-1.68223">
        <ele>36.7</ele>
        <time>2012-06-01T12:50:56Z</time>
      </trkpt>
      <trkpt lat="46.45241" lon="-1.68243">
        <ele>37</ele>
        <time>2012-06-01T12:51:06Z</time>
      </trkpt>
      <trkpt lat="46.45238" lon="-1.68262">
        <ele>36.7</ele>
        <time>2012-06-01T12:51:16Z</time>
      </trkpt>
      <trkpt lat="46.45237" lon="-1.68283">
        <ele>36.4</ele>
        <time>2012-06-01T12:51:26Z</time>
      </trkpt>
      <trkpt lat="46.45236" lon="-1.68303">
        <ele>36</ele>
        <time>2012-06-01T12:51:37Z</time>
      </trkpt>
      <trkpt lat="46.45237" lon="-1.68323">
        <ele>35.7</ele>
        <time>2012-06-01T12:51:48Z</time>
      </trkpt>
      <trkpt lat="46.45241" lon="-1.68343">
        <ele>35.3</ele>
        <time>2012-06-01T12:52:00Z</time>
      </trkpt>
      <trkpt lat="46.45245" lon="-1.68363">
        <ele>35</ele>
        <time>2012-06-01T12:52:11Z</time>
      </trkpt>
      <trkpt lat="46.4525" lon="-1.68382">
        <ele>34.7</ele>
        <time>2012-06-01T12:52:21Z</time>
      </trkpt>
      <trkpt lat="46.45255" lon="-1.68405">
        <ele>34.3</ele>
        <time>2012-06-01T12:52:34Z</time>
      </trkpt>
      <trkpt lat="46.45257" lon="-1.68426">
        <ele>33.9</ele>
        <time>2012-06-01T12:52:46Z</time>
      </trkpt>
      <trkpt lat="46.45259" lon="-1.68447">
        <ele>33.5</ele>
        <time>2012-06-01T12:52:58Z</time>
      </trkpt>
      <trkpt lat="46.45267" lon="-1.68471">
        <ele>33.1</ele>
        <time>2012-06-01T12:53:12Z</time>
      </trkpt>
      <trkpt lat="46.45272" lon="-1.6849">
        <ele>32.7</ele>
        <time>2012-06-01T12:53:24Z</time>
      </trkpt>
      <trkpt lat="46.45277" lon="-1.68509">
        <ele>32.4</ele>
        <time>2012-06-01T12:53:36Z</time>
      </trkpt>
      <trkpt lat="46.45282" lon="-1.68529">
        <ele>32</ele>
        <time>2012-06-01T12:53:48Z</time>
      </trkpt>
      <trkpt lat="46.45286" lon="-1.68551">
        <ele>31.6</ele>
        <time>2012-06-01T12:54:01Z</time>
      </trkpt>
      <trkpt lat="46.45291" lon="-1.68574">
        <ele>31.2</ele>
        <time>2012-06-01T12:54:14Z</time>
      </trkpt>
      <trkpt lat="46.45297" lon="-1.68592">
        <ele>30.8</ele>
        <time>2012-06-01T12:54:27Z</time>
      </trkpt>
      <trkpt lat="46.45303" lon="-1.68612">
        <ele>30.4</ele>
        <time>2012-06-01T12:54:39Z</time>
      </trkpt>
      <trkpt lat="46.45313" lon="-1.68632">
        <ele>29.5</ele>
        <time>2012-06-01T12:55:07Z</time>
      </trkpt>
      <trkpt lat="46.45321" lon="-1.68647">
        <ele>29</ele>
        <time>2012-06-01T12:55:23Z</time>
      </trkpt>
      <trkpt lat="46.45326" lon="-1.68669">
        <ele>28.6</ele>
        <time>2012-06-01T12:55:38Z</time>
      </trkpt>
      <trkpt lat="46.45332" lon="-1.68689">
        <ele>28.3</ele>
        <time>2012-06-01T12:55:48Z</time>
      </trkpt>
      <trkpt lat="46.45336" lon="-1.68708">
        <ele>27.9</ele>
        <time>2012-06-01T12:56:01Z</time>
      </trkpt>
      <trkpt lat="46.45339" lon="-1.68729">
        <ele>27.5</ele>
        <time>2012-06-01T12:56:13Z</time>
      </trkpt>
      <trkpt lat="46.45342" lon="-1.6875">
        <ele>27.1</ele>
        <time>2012-06-01T12:56:25Z</time>
      </trkpt>
      <trkpt lat="46.45344" lon="-1.68772">
        <ele>27.1</ele>
        <time>2012-06-01T12:56:39Z</time>
      </trkpt>
      <trkpt lat="46.45348" lon="-1.688">
        <ele>27.2</ele>
        <time>2012-06-01T12:56:53Z</time>
      </trkpt>
      <trkpt lat="46.45349" lon="-1.68819">
        <ele>27.4</ele>
        <time>2012-06-01T12:57:04Z</time>
      </trkpt>
      <trkpt lat="46.45351" lon="-1.68843">
        <ele>27.5</ele>
        <time>2012-06-01T12:57:17Z</time>
      </trkpt>
      <trkpt lat="46.45354" lon="-1.68867">
        <ele>27.7</ele>
        <time>2012-06-01T12:57:30Z</time>
      </trkpt>
      <trkpt lat="46.45357" lon="-1.68895">
        <ele>27.8</ele>
        <time>2012-06-01T12:57:45Z</time>
      </trkpt>
      <trkpt lat="46.4536" lon="-1.68917">
        <ele>28</ele>
        <time>2012-06-01T12:57:57Z</time>
      </trkpt>
      <trkpt lat="46.45365" lon="-1.68937">
        <ele>28.1</ele>
        <time>2012-06-01T12:58:10Z</time>
      </trkpt>
      <trkpt lat="46.4537" lon="-1.68958">
        <ele>28.3</ele>
        <time>2012-06-01T12:58:23Z</time>
      </trkpt>
      <trkpt lat="46.45375" lon="-1.68978">
        <ele>28.4</ele>
        <time>2012-06-01T12:58:36Z</time>
      </trkpt>
      <trkpt lat="46.4538" lon="-1.68999">
        <ele>28.6</ele>
        <time>2012-06-01T12:58:54Z</time>
      </trkpt>
      <trkpt lat="46.45389" lon="-1.69021">
        <ele>28.8</ele>
        <time>2012-06-01T12:59:11Z</time>
      </trkpt>
      <trkpt lat="46.454" lon="-1.69044">
        <ele>29</ele>
        <time>2012-06-01T12:59:25Z</time>
      </trkpt>
      <trkpt lat="46.45409" lon="-1.6907">
        <ele>29.2</ele>
        <time>2012-06-01T12:59:39Z</time>
      </trkpt>
      <trkpt lat="46.45418" lon="-1.69099">
        <ele>29.3</ele>
        <time>2012-06-01T12:59:54Z</time>
      </trkpt>
      <trkpt lat="46.45419" lon="-1.69119">
        <ele>29.5</ele>
        <time>2012-06-01T13:00:05Z</time>
      </trkpt>
      <trkpt lat="46.4542" lon="-1.6914">
        <ele>29.6</ele>
        <time>2012-06-01T13:00:17Z</time>
      </trkpt>
      <trkpt lat="46.45419" lon="-1.69165">
        <ele>29.7</ele>
        <time>2012-06-01T13:00:30Z</time>
      </trkpt>
      <trkpt lat="46.45417" lon="-1.69192">
        <ele>29.9</ele>
        <time>2012-06-01T13:00:46Z</time>
      </trkpt>
      <trkpt lat="46.45416" lon="-1.69217">
        <ele>30.1</ele>
        <time>2012-06-01T13:01:04Z</time>
      </trkpt>
      <trkpt lat="46.45413" lon="-1.69238">
        <ele>30.3</ele>
        <time>2012-06-01T13:01:17Z</time>
      </trkpt>
      <trkpt lat="46.45412" lon="-1.69261">
        <ele>30.5</ele>
        <time>2012-06-01T13:01:31Z</time>
      </trkpt>
      <trkpt lat="46.45413" lon="-1.69291">
        <ele>30.7</ele>
        <time>2012-06-01T13:01:49Z</time>
      </trkpt>
      <trkpt lat="46.45415" lon="-1.69312">
        <ele>30.8</ele>
        <time>2012-06-01T13:02:00Z</time>
      </trkpt>
      <trkpt lat="46.45416" lon="-1.69332">
        <ele>30.9</ele>
        <time>2012-06-01T13:02:09Z</time>
      </trkpt>
      <trkpt lat="46.45419" lon="-1.69352">
        <ele>31</ele>
        <time>2012-06-01T13:02:19Z</time>
      </trkpt>
      <trkpt lat="46.45419" lon="-1.69372">
        <ele>31.1</ele>
        <time>2012-06-01T13:02:29Z</time>
      </trkpt>
      <trkpt lat="46.4542" lon="-1.69395">
        <ele>31.2</ele>
        <time>2012-06-01T13:02:40Z</time>
      </trkpt>
      <trkpt lat="46.4542" lon="-1.69419">
        <ele>31.4</ele>
        <time>2012-06-01T13:02:53Z</time>
      </trkpt>
      <trkpt lat="46.45419" lon="-1.69438">
        <ele>31.5</ele>
        <time>2012-06-01T13:03:04Z</time>
      </trkpt>
      <trkpt lat="46.45418" lon="-1.69459">
        <ele>31.7</ele>
        <time>2012-06-01T13:03:17Z</time>
      </trkpt>
      <trkpt lat="46.45417" lon="-1.69479">
        <ele>31.8</ele>
        <time>2012-06-01T13:03:28Z</time>
      </trkpt>
      <trkpt lat="46.45416" lon="-1.69502">
        <ele>31.9</ele>
        <time>2012-06-01T13:03:39Z</time>
      </trkpt>
      <trkpt lat="46.45415" lon="-1.69522">
        <ele>32.1</ele>
        <time>2012-06-01T13:03:53Z</time>
      </trkpt>
      <trkpt lat="46.45413" lon="-1.69542">
        <ele>32.2</ele>
        <time>2012-06-01T13:04:06Z</time>
      </trkpt>
      <trkpt lat="46.45413" lon="-1.69564">
        <ele>32.4</ele>
        <time>2012-06-01T13:04:18Z</time>
      </trkpt>
      <trkpt lat="46.45417" lon="-1.69584">
        <ele>32.5</ele>
        <time>2012-06-01T13:04:29Z</time>
      </trkpt>
      <trkpt lat="46.4542" lon="-1.69603">
        <ele>32.6</ele>
        <time>2012-06-01T13:04:39Z</time>
      </trkpt>
      <trkpt lat="46.45424" lon="-1.69622">
        <ele>32.8</ele>
        <time>2012-06-01T13:04:51Z</time>
      </trkpt>
      <trkpt lat="46.45428" lon="-1.69642">
        <ele>32.9</ele>
        <time>2012-06-01T13:05:02Z</time>
      </trkpt>
      <trkpt lat="46.45431" lon="-1.69666">
        <ele>33.2</ele>
        <time>2012-06-01T13:05:30Z</time>
      </trkpt>
      <trkpt lat="46.45433" lon="-1.69686">
        <ele>33.4</ele>
        <time>2012-06-01T13:05:43Z</time>
      </trkpt>
      <trkpt lat="46.45438" lon="-1.69706">
        <ele>33.5</ele>
        <time>2012-06-01T13:05:57Z</time>
      </trkpt>
      <trkpt lat="46.45444" lon="-1.69725">
        <ele>33.7</ele>
        <time>2012-06-01T13:06:09Z</time>
      </trkpt>
      <trkpt lat="46.4545" lon="-1.69744">
        <ele>33.8</ele>
        <time>2012-06-01T13:06:20Z</time>
      </trkpt>
      <trkpt lat="46.45453" lon="-1.69765">
        <ele>33.9</ele>
        <time>2012-06-01T13:06:31Z</time>
      </trkpt>
      <trkpt lat="46.45455" lon="-1.69786">
        <ele>34</ele>
        <time>2012-06-01T13:06:41Z</time>
      </trkpt>
      <trkpt lat="46.45458" lon="-1.69807">
        <ele>34.2</ele>
        <time>2012-06-01T13:06:53Z</time>
      </trkpt>
      <trkpt lat="46.45464" lon="-1.69826">
        <ele>34.3</ele>
        <time>2012-06-01T13:07:04Z</time>
      </trkpt>
      <trkpt lat="46.45468" lon="-1.69846">
        <ele>34.4</ele>
        <time>2012-06-01T13:07:15Z</time>
      </trkpt>
      <trkpt lat="46.45474" lon="-1.69865">
        <ele>34.5</ele>
        <time>2012-06-01T13:07:26Z</time>
      </trkpt>
      <trkpt lat="46.45482" lon="-1.69882">
        <ele>34.7</ele>
        <time>2012-06-01T13:07:37Z</time>
      </trkpt>
      <trkpt lat="46.45489" lon="-1.69901">
        <ele>34.8</ele>
        <time>2012-06-01T13:07:50Z</time>
      </trkpt>
      <trkpt lat="46.45494" lon="-1.69921">
        <ele>35</ele>
        <time>2012-06-01T13:08:02Z</time>
      </trkpt>
      <trkpt lat="46.45499" lon="-1.69939">
        <ele>35.2</ele>
        <time>2012-06-01T13:08:26Z</time>
      </trkpt>
      <trkpt lat="46.45504" lon="-1.69946">
        <ele>35.4</ele>
        <time>2012-06-01T13:08:37Z</time>
      </trkpt>
      <trkpt lat="46.45518" lon="-1.69985">
        <ele>37.8</ele>
        <time>2012-06-01T13:12:04Z</time>
      </trkpt>
      <trkpt lat="46.45523" lon="-1.70004">
        <ele>37.8</ele>
        <time>2012-06-01T13:12:10Z</time>
      </trkpt>
      <trkpt lat="46.45531" lon="-1.70027">
        <ele>37.9</ele>
        <time>2012-06-01T13:12:21Z</time>
      </trkpt>
      <trkpt lat="46.45539" lon="-1.70051">
        <ele>37.8</ele>
        <time>2012-06-01T13:12:34Z</time>
      </trkpt>
      <trkpt lat="46.45545" lon="-1.70078">
        <ele>37.7</ele>
        <time>2012-06-01T13:12:47Z</time>
      </trkpt>
      <trkpt lat="46.45551" lon="-1.70098">
        <ele>37.6</ele>
        <time>2012-06-01T13:12:57Z</time>
      </trkpt>
      <trkpt lat="46.45556" lon="-1.70117">
        <ele>37.5</ele>
        <time>2012-06-01T13:13:07Z</time>
      </trkpt>
      <trkpt lat="46.45562" lon="-1.70136">
        <ele>37.4</ele>
        <time>2012-06-01T13:13:18Z</time>
      </trkpt>
      <trkpt lat="46.45568" lon="-1.70157">
        <ele>37.2</ele>
        <time>2012-06-01T13:13:30Z</time>
      </trkpt>
      <trkpt lat="46.45575" lon="-1.70183">
        <ele>37.1</ele>
        <time>2012-06-01T13:13:43Z</time>
      </trkpt>
      <trkpt lat="46.45579" lon="-1.70204">
        <ele>37</ele>
        <time>2012-06-01T13:13:50Z</time>
      </trkpt>
      <trkpt lat="46.45585" lon="-1.70223">
        <ele>36.8</ele>
        <time>2012-06-01T13:14:07Z</time>
      </trkpt>
      <trkpt lat="46.45591" lon="-1.7024">
        <ele>36.7</ele>
        <time>2012-06-01T13:14:19Z</time>
      </trkpt>
      <trkpt lat="46.45598" lon="-1.70259">
        <ele>36.6</ele>
        <time>2012-06-01T13:14:29Z</time>
      </trkpt>
      <trkpt lat="46.45606" lon="-1.7028">
        <ele>36.4</ele>
        <time>2012-06-01T13:14:42Z</time>
      </trkpt>
      <trkpt lat="46.45611" lon="-1.703">
        <ele>36.3</ele>
        <time>2012-06-01T13:14:53Z</time>
      </trkpt>
      <trkpt lat="46.45616" lon="-1.70321">
        <ele>36.2</ele>
        <time>2012-06-01T13:15:06Z</time>
      </trkpt>
      <trkpt lat="46.45623" lon="-1.70344">
        <ele>36</ele>
        <time>2012-06-01T13:15:19Z</time>
      </trkpt>
      <trkpt lat="46.45628" lon="-1.70369">
        <ele>35.8</ele>
        <time>2012-06-01T13:15:38Z</time>
      </trkpt>
      <trkpt lat="46.4561" lon="-1.70372">
        <ele>35.6</ele>
        <time>2012-06-01T13:16:00Z</time>
      </trkpt>
      <trkpt lat="46.4559" lon="-1.70376">
        <ele>35.4</ele>
        <time>2012-06-01T13:16:16Z</time>
      </trkpt>
      <trkpt lat="46.45568" lon="-1.70381">
        <ele>35.2</ele>
        <time>2012-06-01T13:16:34Z</time>
      </trkpt>
      <trkpt lat="46.4555" lon="-1.70385">
        <ele>35</ele>
        <time>2012-06-01T13:16:48Z</time>
      </trkpt>
      <trkpt lat="46.45537" lon="-1.70401">
        <ele>34.9</ele>
        <time>2012-06-01T13:16:58Z</time>
      </trkpt>
      <trkpt lat="46.45529" lon="-1.7043">
        <ele>34.7</ele>
        <time>2012-06-01T13:17:16Z</time>
      </trkpt>
      <trkpt lat="46.45527" lon="-1.70451">
        <ele>34.6</ele>
        <time>2012-06-01T13:17:29Z</time>
      </trkpt>
      <trkpt lat="46.45526" lon="-1.70459">
        <ele>34.5</ele>
        <time>2012-06-01T13:17:37Z</time>
      </trkpt>
      <trkpt lat="46.45517" lon="-1.70479">
        <ele>34.3</ele>
        <time>2012-06-01T13:17:57Z</time>
      </trkpt>
      <trkpt lat="46.45493" lon="-1.70504">
        <ele>34</ele>
        <time>2012-06-01T13:18:24Z</time>
      </trkpt>
      <trkpt lat="46.4547" lon="-1.70525">
        <ele>33.7</ele>
        <time>2012-06-01T13:18:45Z</time>
      </trkpt>
      <trkpt lat="46.45443" lon="-1.70533">
        <ele>33.5</ele>
        <time>2012-06-01T13:19:09Z</time>
      </trkpt>
      <trkpt lat="46.45416" lon="-1.70535">
        <ele>33.2</ele>
        <time>2012-06-01T13:19:33Z</time>
      </trkpt>
      <trkpt lat="46.45402" lon="-1.70533">
        <ele>33.1</ele>
        <time>2012-06-01T13:19:45Z</time>
      </trkpt>
      <trkpt lat="46.45368" lon="-1.70515">
        <ele>32.8</ele>
        <time>2012-06-01T13:20:09Z</time>
      </trkpt>
      <trkpt lat="46.45349" lon="-1.70506">
        <ele>32.7</ele>
        <time>2012-06-01T13:20:21Z</time>
      </trkpt>
      <trkpt lat="46.45334" lon="-1.70502">
        <ele>32.5</ele>
        <time>2012-06-01T13:20:33Z</time>
      </trkpt>
      <trkpt lat="46.453" lon="-1.70495">
        <ele>32.3</ele>
        <time>2012-06-01T13:20:58Z</time>
      </trkpt>
      <trkpt lat="46.45273" lon="-1.70489">
        <ele>32</ele>
        <time>2012-06-01T13:21:23Z</time>
      </trkpt>
      <trkpt lat="46.45246" lon="-1.70493">
        <ele>31.6</ele>
        <time>2012-06-01T13:22:02Z</time>
      </trkpt>
      <trkpt lat="46.45235" lon="-1.70457">
        <ele>29.2</ele>
        <time>2012-06-01T13:25:32Z</time>
      </trkpt>
      <trkpt lat="46.4521" lon="-1.70467">
        <ele>28.3</ele>
        <time>2012-06-01T13:26:56Z</time>
      </trkpt>
      <trkpt lat="46.45195" lon="-1.70466">
        <ele>28.1</ele>
        <time>2012-06-01T13:27:16Z</time>
      </trkpt>
      <trkpt lat="46.4518" lon="-1.70465">
        <ele>27.9</ele>
        <time>2012-06-01T13:27:32Z</time>
      </trkpt>
      <trkpt lat="46.45165" lon="-1.70463">
        <ele>27.8</ele>
        <time>2012-06-01T13:27:44Z</time>
      </trkpt>
      <trkpt lat="46.45128" lon="-1.70457">
        <ele>27.4</ele>
        <time>2012-06-01T13:28:14Z</time>
      </trkpt>
      <trkpt lat="46.45099" lon="-1.70458">
        <ele>27.2</ele>
        <time>2012-06-01T13:28:39Z</time>
      </trkpt>
      <trkpt lat="46.45072" lon="-1.70462">
        <ele>27</ele>
        <time>2012-06-01T13:28:55Z</time>
      </trkpt>
      <trkpt lat="46.45067" lon="-1.70473">
        <ele>27</ele>
        <time>2012-06-01T13:29:03Z</time>
      </trkpt>
      <trkpt lat="46.45064" lon="-1.70486">
        <ele>27</ele>
        <time>2012-06-01T13:29:13Z</time>
      </trkpt>
      <trkpt lat="46.45066" lon="-1.70517">
        <ele>27</ele>
        <time>2012-06-01T13:29:35Z</time>
      </trkpt>
      <trkpt lat="46.45071" lon="-1.70551">
        <ele>27</ele>
        <time>2012-06-01T13:29:49Z</time>
      </trkpt>
      <trkpt lat="46.45073" lon="-1.70572">
        <ele>27</ele>
        <time>2012-06-01T13:29:58Z</time>
      </trkpt>
      <trkpt lat="46.4507" lon="-1.70582">
        <ele>27</ele>
        <time>2012-06-01T13:30:07Z</time>
      </trkpt>
      <trkpt lat="46.45055" lon="-1.70595">
        <ele>27</ele>
        <time>2012-06-01T13:30:30Z</time>
      </trkpt>
      <trkpt lat="46.45035" lon="-1.7061">
        <ele>27</ele>
        <time>2012-06-01T13:31:09Z</time>
      </trkpt>
      <trkpt lat="46.4502" lon="-1.70613">
        <ele>27</ele>
        <time>2012-06-01T13:31:38Z</time>
      </trkpt>
      <trkpt lat="46.45027" lon="-1.70621">
        <ele>27</ele>
        <time>2012-06-01T13:32:06Z</time>
      </trkpt>
      <trkpt lat="46.45024" lon="-1.70626">
        <ele>27</ele>
        <time>2012-06-01T13:32:41Z</time>
      </trkpt>
      <trkpt lat="46.4501" lon="-1.70623">
        <ele>27</ele>
        <time>2012-06-01T13:33:05Z</time>
      </trkpt>
      <trkpt lat="46.44996" lon="-1.70621">
        <ele>27</ele>
        <time>2012-06-01T13:33:25Z</time>
      </trkpt>
      <trkpt lat="46.44993" lon="-1.706">
        <ele>22.5</ele>
        <time>2012-06-01T13:33:41Z</time>
      </trkpt>
      <trkpt lat="46.44986" lon="-1.7058">
        <ele>17.4</ele>
        <time>2012-06-01T13:33:59Z</time>
      </trkpt>
      <trkpt lat="46.44983" lon="-1.70559">
        <ele>16</ele>
        <time>2012-06-01T13:34:14Z</time>
      </trkpt>
      <trkpt lat="46.44981" lon="-1.70535">
        <ele>16</ele>
        <time>2012-06-01T13:34:27Z</time>
      </trkpt>
      <trkpt lat="46.44977" lon="-1.70528">
        <ele>16</ele>
        <time>2012-06-01T13:34:32Z</time>
      </trkpt>
      <trkpt lat="46.44958" lon="-1.7053">
        <ele>16</ele>
        <time>2012-06-01T13:34:51Z</time>
      </trkpt>
      <trkpt lat="46.44945" lon="-1.70522">
        <ele>16</ele>
        <time>2012-06-01T13:35:05Z</time>
      </trkpt>
      <trkpt lat="46.44934" lon="-1.7051">
        <ele>16</ele>
        <time>2012-06-01T13:35:17Z</time>
      </trkpt>
      <trkpt lat="46.44925" lon="-1.70494">
        <ele>16</ele>
        <time>2012-06-01T13:35:31Z</time>
      </trkpt>
      <trkpt lat="46.44912" lon="-1.70479">
        <ele>16</ele>
        <time>2012-06-01T13:35:51Z</time>
      </trkpt>
      <trkpt lat="46.44904" lon="-1.70462">
        <ele>16</ele>
        <time>2012-06-01T13:36:06Z</time>
      </trkpt>
      <trkpt lat="46.44899" lon="-1.70442">
        <ele>16</ele>
        <time>2012-06-01T13:36:19Z</time>
      </trkpt>
      <trkpt lat="46.44896" lon="-1.70421">
        <ele>16</ele>
        <time>2012-06-01T13:36:36Z</time>
      </trkpt>
      <trkpt lat="46.4489" lon="-1.70403">
        <ele>16</ele>
        <time>2012-06-01T13:36:53Z</time>
      </trkpt>
      <trkpt lat="46.44886" lon="-1.7039">
        <ele>16</ele>
        <time>2012-06-01T13:37:03Z</time>
      </trkpt>
      <trkpt lat="46.44885" lon="-1.7037">
        <ele>16</ele>
        <time>2012-06-01T13:37:16Z</time>
      </trkpt>
      <trkpt lat="46.44883" lon="-1.70347">
        <ele>16</ele>
        <time>2012-06-01T13:37:35Z</time>
      </trkpt>
      <trkpt lat="46.44883" lon="-1.70325">
        <ele>16</ele>
        <time>2012-06-01T13:37:48Z</time>
      </trkpt>
      <trkpt lat="46.44879" lon="-1.70306">
        <ele>16</ele>
        <time>2012-06-01T13:37:59Z</time>
      </trkpt>
      <trkpt lat="46.44871" lon="-1.70288">
        <ele>16</ele>
        <time>2012-06-01T13:38:09Z</time>
      </trkpt>
      <trkpt lat="46.44863" lon="-1.70272">
        <ele>16</ele>
        <time>2012-06-01T13:38:21Z</time>
      </trkpt>
      <trkpt lat="46.44853" lon="-1.70257">
        <ele>16</ele>
        <time>2012-06-01T13:38:35Z</time>
      </trkpt>
      <trkpt lat="46.4484" lon="-1.70249">
        <ele>16</ele>
        <time>2012-06-01T13:38:47Z</time>
      </trkpt>
      <trkpt lat="46.44827" lon="-1.70241">
        <ele>16</ele>
        <time>2012-06-01T13:38:59Z</time>
      </trkpt>
      <trkpt lat="46.44822" lon="-1.7023">
        <ele>16</ele>
        <time>2012-06-01T13:39:08Z</time>
      </trkpt>
      <trkpt lat="46.44825" lon="-1.70203">
        <ele>16</ele>
        <time>2012-06-01T13:39:33Z</time>
      </trkpt>
      <trkpt lat="46.44834" lon="-1.70179">
        <ele>16</ele>
        <time>2012-06-01T13:39:51Z</time>
      </trkpt>
      <trkpt lat="46.44837" lon="-1.70158">
        <ele>16</ele>
        <time>2012-06-01T13:40:06Z</time>
      </trkpt>
      <trkpt lat="46.44828" lon="-1.70143">
        <ele>16</ele>
        <time>2012-06-01T13:40:16Z</time>
      </trkpt>
      <trkpt lat="46.44814" lon="-1.70123">
        <ele>16</ele>
        <time>2012-06-01T13:40:34Z</time>
      </trkpt>
      <trkpt lat="46.44803" lon="-1.7011">
        <ele>16</ele>
        <time>2012-06-01T13:40:46Z</time>
      </trkpt>
      <trkpt lat="46.44791" lon="-1.70102">
        <ele>16</ele>
        <time>2012-06-01T13:40:57Z</time>
      </trkpt>
      <trkpt lat="46.44787" lon="-1.70093">
        <ele>16</ele>
        <time>2012-06-01T13:41:04Z</time>
      </trkpt>
      <trkpt lat="46.44789" lon="-1.7007">
        <ele>16</ele>
        <time>2012-06-01T13:41:30Z</time>
      </trkpt>
      <trkpt lat="46.44787" lon="-1.70013">
        <ele>16</ele>
        <time>2012-06-01T13:42:03Z</time>
      </trkpt>
      <trkpt lat="46.44786" lon="-1.70008">
        <ele>16</ele>
        <time>2012-06-01T13:42:07Z</time>
      </trkpt>
      <trkpt lat="46.44771" lon="-1.69978">
        <ele>16</ele>
        <time>2012-06-01T13:42:26Z</time>
      </trkpt>
      <trkpt lat="46.44761" lon="-1.69934">
        <ele>16</ele>
        <time>2012-06-01T13:42:53Z</time>
      </trkpt>
      <trkpt lat="46.44758" lon="-1.69914">
        <ele>16</ele>
        <time>2012-06-01T13:43:12Z</time>
      </trkpt>
      <trkpt lat="46.4474" lon="-1.69866">
        <ele>16</ele>
        <time>2012-06-01T13:43:36Z</time>
      </trkpt>
      <trkpt lat="46.44727" lon="-1.69853">
        <ele>16</ele>
        <time>2012-06-01T13:43:48Z</time>
      </trkpt>
      <trkpt lat="46.44725" lon="-1.69851">
        <ele>16</ele>
        <time>2012-06-01T13:43:56Z</time>
      </trkpt>
      <trkpt lat="46.44728" lon="-1.69811">
        <ele>16</ele>
        <time>2012-06-01T13:44:47Z</time>
      </trkpt>
      <trkpt lat="46.44735" lon="-1.69788">
        <ele>16</ele>
        <time>2012-06-01T13:45:04Z</time>
      </trkpt>
      <trkpt lat="46.44758" lon="-1.6975">
        <ele>16</ele>
        <time>2012-06-01T13:45:46Z</time>
      </trkpt>
      <trkpt lat="46.44768" lon="-1.69749">
        <ele>16</ele>
        <time>2012-06-01T13:47:14Z</time>
      </trkpt>
      <trkpt lat="46.44756" lon="-1.6974">
        <ele>16</ele>
        <time>2012-06-01T13:47:59Z</time>
      </trkpt>
      <trkpt lat="46.44759" lon="-1.69709">
        <ele>16</ele>
        <time>2012-06-01T13:50:06Z</time>
      </trkpt>
      <trkpt lat="46.4476" lon="-1.69689">
        <ele>16</ele>
        <time>2012-06-01T13:50:27Z</time>
      </trkpt>
      <trkpt lat="46.44755" lon="-1.69669">
        <ele>16</ele>
        <time>2012-06-01T13:50:41Z</time>
      </trkpt>
      <trkpt lat="46.44747" lon="-1.69653">
        <ele>16</ele>
        <time>2012-06-01T13:50:51Z</time>
      </trkpt>
      <trkpt lat="46.44737" lon="-1.69634">
        <ele>16</ele>
        <time>2012-06-01T13:51:05Z</time>
      </trkpt>
      <trkpt lat="46.44727" lon="-1.6962">
        <ele>16</ele>
        <time>2012-06-01T13:51:23Z</time>
      </trkpt>
      <trkpt lat="46.44715" lon="-1.69606">
        <ele>16</ele>
        <time>2012-06-01T13:51:43Z</time>
      </trkpt>
      <trkpt lat="46.44704" lon="-1.69592">
        <ele>16</ele>
        <time>2012-06-01T13:52:01Z</time>
      </trkpt>
      <trkpt lat="46.44691" lon="-1.69578">
        <ele>16</ele>
        <time>2012-06-01T13:52:16Z</time>
      </trkpt>
      <trkpt lat="46.44679" lon="-1.69563">
        <ele>16</ele>
        <time>2012-06-01T13:52:38Z</time>
      </trkpt>
      <trkpt lat="46.44673" lon="-1.69553">
        <ele>16</ele>
        <time>2012-06-01T13:52:51Z</time>
      </trkpt>
      <trkpt lat="46.44654" lon="-1.69547">
        <ele>16</ele>
        <time>2012-06-01T13:53:08Z</time>
      </trkpt>
      <trkpt lat="46.44642" lon="-1.69533">
        <ele>16</ele>
        <time>2012-06-01T13:53:26Z</time>
      </trkpt>
      <trkpt lat="46.44629" lon="-1.69525">
        <ele>16</ele>
        <time>2012-06-01T13:53:39Z</time>
      </trkpt>
      <trkpt lat="46.44616" lon="-1.69519">
        <ele>16</ele>
        <time>2012-06-01T13:53:50Z</time>
      </trkpt>
      <trkpt lat="46.446" lon="-1.69509">
        <ele>16</ele>
        <time>2012-06-01T13:54:06Z</time>
      </trkpt>
      <trkpt lat="46.44588" lon="-1.69499">
        <ele>16</ele>
        <time>2012-06-01T13:54:16Z</time>
      </trkpt>
      <trkpt lat="46.44581" lon="-1.69492">
        <ele>16</ele>
        <time>2012-06-01T13:54:26Z</time>
      </trkpt>
      <trkpt lat="46.44562" lon="-1.69457">
        <ele>16</ele>
        <time>2012-06-01T13:54:38Z</time>
      </trkpt>
      <trkpt lat="46.44549" lon="-1.69454">
        <ele>16</ele>
        <time>2012-06-01T13:55:16Z</time>
      </trkpt>
      <trkpt lat="46.44526" lon="-1.69449">
        <ele>16</ele>
        <time>2012-06-01T13:55:36Z</time>
      </trkpt>
      <trkpt lat="46.44511" lon="-1.69435">
        <ele>16</ele>
        <time>2012-06-01T13:55:59Z</time>
      </trkpt>
      <trkpt lat="46.44504" lon="-1.69406">
        <ele>16</ele>
        <time>2012-06-01T13:56:25Z</time>
      </trkpt>
      <trkpt lat="46.44492" lon="-1.69371">
        <ele>16</ele>
        <time>2012-06-01T13:56:55Z</time>
      </trkpt>
      <trkpt lat="46.44482" lon="-1.69335">
        <ele>16</ele>
        <time>2012-06-01T13:57:27Z</time>
      </trkpt>
      <trkpt lat="46.4447" lon="-1.69298">
        <ele>16</ele>
        <time>2012-06-01T13:57:58Z</time>
      </trkpt>
      <trkpt lat="46.44455" lon="-1.69264">
        <ele>16</ele>
        <time>2012-06-01T13:58:32Z</time>
      </trkpt>
      <trkpt lat="46.44435" lon="-1.69237">
        <ele>16</ele>
        <time>2012-06-01T13:58:54Z</time>
      </trkpt>
      <trkpt lat="46.44415" lon="-1.69207">
        <ele>16</ele>
        <time>2012-06-01T13:59:20Z</time>
      </trkpt>
      <trkpt lat="46.44395" lon="-1.6918">
        <ele>16</ele>
        <time>2012-06-01T13:59:36Z</time>
      </trkpt>
      <trkpt lat="46.44376" lon="-1.6915">
        <ele>16</ele>
        <time>2012-06-01T14:00:03Z</time>
      </trkpt>
      <trkpt lat="46.44365" lon="-1.69114">
        <ele>16</ele>
        <time>2012-06-01T14:00:33Z</time>
      </trkpt>
      <trkpt lat="46.44358" lon="-1.69075">
        <ele>16</ele>
        <time>2012-06-01T14:01:02Z</time>
      </trkpt>
      <trkpt lat="46.44344" lon="-1.69042">
        <ele>16</ele>
        <time>2012-06-01T14:01:31Z</time>
      </trkpt>
      <trkpt lat="46.44326" lon="-1.6901">
        <ele>16</ele>
        <time>2012-06-01T14:01:49Z</time>
      </trkpt>
      <trkpt lat="46.44306" lon="-1.68982">
        <ele>16</ele>
        <time>2012-06-01T14:02:12Z</time>
      </trkpt>
      <trkpt lat="46.44289" lon="-1.68952">
        <ele>16</ele>
        <time>2012-06-01T14:02:49Z</time>
      </trkpt>
      <trkpt lat="46.44275" lon="-1.68917">
        <ele>16</ele>
        <time>2012-06-01T14:03:06Z</time>
      </trkpt>
      <trkpt lat="46.44264" lon="-1.68898">
        <ele>16</ele>
        <time>2012-06-01T14:03:23Z</time>
      </trkpt>
      <trkpt lat="46.44264" lon="-1.68893">
        <ele>16</ele>
        <time>2012-06-01T14:03:54Z</time>
      </trkpt>
      <trkpt lat="46.44274" lon="-1.68899">
        <ele>16</ele>
        <time>2012-06-01T14:05:53Z</time>
      </trkpt>
      <trkpt lat="46.44279" lon="-1.6888">
        <ele>16</ele>
        <time>2012-06-01T14:06:20Z</time>
      </trkpt>
      <trkpt lat="46.44285" lon="-1.68861">
        <ele>16</ele>
        <time>2012-06-01T14:06:39Z</time>
      </trkpt>
      <trkpt lat="46.44293" lon="-1.68842">
        <ele>16</ele>
        <time>2012-06-01T14:07:05Z</time>
      </trkpt>
      <trkpt lat="46.44292" lon="-1.68822">
        <ele>16</ele>
        <time>2012-06-01T14:07:21Z</time>
      </trkpt>
      <trkpt lat="46.44292" lon="-1.68801">
        <ele>16</ele>
        <time>2012-06-01T14:07:35Z</time>
      </trkpt>
      <trkpt lat="46.443" lon="-1.68745">
        <ele>16</ele>
        <time>2012-06-01T14:08:37Z</time>
      </trkpt>
      <trkpt lat="46.44296" lon="-1.68706">
        <ele>16</ele>
        <time>2012-06-01T14:09:12Z</time>
      </trkpt>
      <trkpt lat="46.44284" lon="-1.68669">
        <ele>16</ele>
        <time>2012-06-01T14:09:34Z</time>
      </trkpt>
      <trkpt lat="46.44263" lon="-1.68645">
        <ele>17.1</ele>
        <time>2012-06-01T14:10:04Z</time>
      </trkpt>
      <trkpt lat="46.44267" lon="-1.68606">
        <ele>18.9</ele>
        <time>2012-06-01T14:10:50Z</time>
      </trkpt>
      <trkpt lat="46.44271" lon="-1.68566">
        <ele>20.1</ele>
        <time>2012-06-01T14:11:19Z</time>
      </trkpt>
      <trkpt lat="46.44249" lon="-1.6854">
        <ele>21.2</ele>
        <time>2012-06-01T14:11:47Z</time>
      </trkpt>
      <trkpt lat="46.44233" lon="-1.68509">
        <ele>22.4</ele>
        <time>2012-06-01T14:12:17Z</time>
      </trkpt>
      <trkpt lat="46.44225" lon="-1.68471">
        <ele>23.6</ele>
        <time>2012-06-01T14:12:48Z</time>
      </trkpt>
      <trkpt lat="46.44223" lon="-1.68431">
        <ele>24.9</ele>
        <time>2012-06-01T14:13:19Z</time>
      </trkpt>
      <trkpt lat="46.44223" lon="-1.68391">
        <ele>25.9</ele>
        <time>2012-06-01T14:13:45Z</time>
      </trkpt>
      <trkpt lat="46.44224" lon="-1.68351">
        <ele>26</ele>
        <time>2012-06-01T14:14:11Z</time>
      </trkpt>
      <trkpt lat="46.44217" lon="-1.68312">
        <ele>26</ele>
        <time>2012-06-01T14:14:36Z</time>
      </trkpt>
      <trkpt lat="46.44207" lon="-1.68294">
        <ele>26</ele>
        <time>2012-06-01T14:14:47Z</time>
      </trkpt>
      <trkpt lat="46.44198" lon="-1.68277">
        <ele>26</ele>
        <time>2012-06-01T14:14:56Z</time>
      </trkpt>
      <trkpt lat="46.44188" lon="-1.68262">
        <ele>26</ele>
        <time>2012-06-01T14:15:09Z</time>
      </trkpt>
      <trkpt lat="46.44178" lon="-1.68234">
        <ele>26</ele>
        <time>2012-06-01T14:15:30Z</time>
      </trkpt>
      <trkpt lat="46.44175" lon="-1.68195">
        <ele>26</ele>
        <time>2012-06-01T14:16:11Z</time>
      </trkpt>
      <trkpt lat="46.4417" lon="-1.68156">
        <ele>26</ele>
        <time>2012-06-01T14:16:37Z</time>
      </trkpt>
      <trkpt lat="46.44166" lon="-1.68127">
        <ele>26</ele>
        <time>2012-06-01T14:16:47Z</time>
      </trkpt>
      <trkpt lat="46.44163" lon="-1.68087">
        <ele>26</ele>
        <time>2012-06-01T14:17:25Z</time>
      </trkpt>
      <trkpt lat="46.44158" lon="-1.68045">
        <ele>26</ele>
        <time>2012-06-01T14:17:56Z</time>
      </trkpt>
      <trkpt lat="46.44162" lon="-1.68004">
        <ele>26</ele>
        <time>2012-06-01T14:18:27Z</time>
      </trkpt>
      <trkpt lat="46.44159" lon="-1.67962">
        <ele>26</ele>
        <time>2012-06-01T14:18:52Z</time>
      </trkpt>
      <trkpt lat="46.44154" lon="-1.67923">
        <ele>26</ele>
        <time>2012-06-01T14:19:08Z</time>
      </trkpt>
      <trkpt lat="46.44155" lon="-1.67883">
        <ele>26</ele>
        <time>2012-06-01T14:19:26Z</time>
      </trkpt>
      <trkpt lat="46.4415" lon="-1.67848">
        <ele>26</ele>
        <time>2012-06-01T14:19:49Z</time>
      </trkpt>
      <trkpt lat="46.44144" lon="-1.67819">
        <ele>26</ele>
        <time>2012-06-01T14:20:12Z</time>
      </trkpt>
      <trkpt lat="46.44148" lon="-1.67779">
        <ele>26</ele>
        <time>2012-06-01T14:20:31Z</time>
      </trkpt>
      <trkpt lat="46.44157" lon="-1.6774">
        <ele>26</ele>
        <time>2012-06-01T14:21:58Z</time>
      </trkpt>
      <trkpt lat="46.44184" lon="-1.67735">
        <ele>26</ele>
        <time>2012-06-01T14:23:08Z</time>
      </trkpt>
      <trkpt lat="46.44211" lon="-1.67725">
        <ele>26</ele>
        <time>2012-06-01T14:23:38Z</time>
      </trkpt>
      <trkpt lat="46.44227" lon="-1.67758">
        <ele>26</ele>
        <time>2012-06-01T14:29:00Z</time>
      </trkpt>
      <trkpt lat="46.44251" lon="-1.67777">
        <ele>26</ele>
        <time>2012-06-01T14:29:25Z</time>
      </trkpt>
      <trkpt lat="46.44279" lon="-1.67783">
        <ele>26</ele>
        <time>2012-06-01T14:29:41Z</time>
      </trkpt>
      <trkpt lat="46.44305" lon="-1.67771">
        <ele>26</ele>
        <time>2012-06-01T14:30:07Z</time>
      </trkpt>
      <trkpt lat="46.44324" lon="-1.67744">
        <ele>26</ele>
        <time>2012-06-01T14:30:39Z</time>
      </trkpt>
      <trkpt lat="46.44344" lon="-1.67714">
        <ele>26</ele>
        <time>2012-06-01T14:31:03Z</time>
      </trkpt>
      <trkpt lat="46.44385" lon="-1.67675">
        <ele>26</ele>
        <time>2012-06-01T14:31:53Z</time>
      </trkpt>
      <trkpt lat="46.44418" lon="-1.67664">
        <ele>26</ele>
        <time>2012-06-01T14:32:19Z</time>
      </trkpt>
      <trkpt lat="46.44411" lon="-1.67596">
        <ele>26</ele>
        <time>2012-06-01T14:33:22Z</time>
      </trkpt>
      <trkpt lat="46.44408" lon="-1.67556">
        <ele>26</ele>
        <time>2012-06-01T14:33:44Z</time>
      </trkpt>
      <trkpt lat="46.44405" lon="-1.67485">
        <ele>26</ele>
        <time>2012-06-01T14:34:32Z</time>
      </trkpt>
      <trkpt lat="46.44413" lon="-1.67447">
        <ele>26</ele>
        <time>2012-06-01T14:35:00Z</time>
      </trkpt>
      <trkpt lat="46.44422" lon="-1.6741">
        <ele>26</ele>
        <time>2012-06-01T14:35:28Z</time>
      </trkpt>
      <trkpt lat="46.44407" lon="-1.67376">
        <ele>26</ele>
        <time>2012-06-01T14:36:09Z</time>
      </trkpt>
      <trkpt lat="46.44395" lon="-1.67305">
        <ele>26</ele>
        <time>2012-06-01T14:36:41Z</time>
      </trkpt>
      <trkpt lat="46.44421" lon="-1.67251">
        <ele>26</ele>
        <time>2012-06-01T14:37:24Z</time>
      </trkpt>
      <trkpt lat="46.44423" lon="-1.67219">
        <ele>26</ele>
        <time>2012-06-01T14:37:42Z</time>
      </trkpt>
      <trkpt lat="46.44423" lon="-1.67214">
        <ele>17</ele>
        <time>2012-06-01T14:37:56Z</time>
      </trkpt>
    </trkseg>
  </trk>
</gpx>